This is the latest recevied weather packets stored in our database for station/object W4OA. If no packets are shown the sender has not sent any weather packets the latest 10 day(s).
| Time | Temp. | Humidity | Pressure | Rain* | Wind** | Luminosity | Snow |
|---|---|---|---|---|---|---|---|
| 1777319698 | 27.78° C | 49% | 1012 hPa | 0 mm | - | 0 W/m² | - |
| 1777319398 | 27.78° C | 49% | 1012 hPa | 0 mm | - | 0 W/m² | - |
| 1777319098 | 27.22° C | 50% | 1012 hPa | 0 mm | - | 0 W/m² | - |
| 1777318799 | 27.22° C | 49% | 1012 hPa | 0 mm | - | 0 W/m² | - |
| 1777318498 | 27.22° C | 51% | 1012 hPa | 0 mm | - | 0 W/m² | - |
| 1777318199 | 27.78° C | 49% | 1012 hPa | 0 mm | - | 0 W/m² | - |
| 1777317899 | 27.22° C | 51% | 1012 hPa | 0 mm | - | 0 W/m² | - |
| 1777317598 | 27.78° C | 47% | 1012 hPa | 0 mm | - | 0 W/m² | - |
| 1777317299 | 27.22° C | 49% | 1012 hPa | 0 mm | - | 0 W/m² | - |
| 1777316999 | 27.22° C | 49% | 1012 hPa | 0 mm | - | 0 W/m² | - |
| 1777316698 | 27.22° C | 48% | 1012 hPa | 0 mm | - | 0 W/m² | - |
| 1777316400 | 26.67° C | 50% | 1012 hPa | 0 mm | - | 0 W/m² | - |
| 1777316099 | 26.67° C | 50% | 1012 hPa | 0 mm | - | 0 W/m² | - |
| 1777315799 | 26.11° C | 50% | 1012 hPa | 0 mm | - | 0 W/m² | - |
| 1777315500 | 26.11° C | 52% | 1012 hPa | 0 mm | - | 0 W/m² | - |
| 1777315199 | 26.11° C | 52% | 1012 hPa | 0 mm | - | 0 W/m² | - |
| 1777314899 | 26.11° C | 53% | 1012 hPa | 0 mm | - | 0 W/m² | - |
| 1777314599 | 26.11° C | 53% | 1012 hPa | 0 mm | - | 0 W/m² | - |
| 1777314299 | 25.56° C | 54% | 1012 hPa | 0 mm | - | 0 W/m² | - |
| 1777313999 | 26.11° C | 53% | 1012 hPa | 0 mm | - | 0 W/m² | - |
| 1777313698 | 26.11° C | 53% | 1012 hPa | 0 mm | - | 0 W/m² | - |
| 1777313400 | 25.56° C | 56% | 1012 hPa | 0 mm | - | 0 W/m² | - |
| 1777313099 | 25° C | 58% | 1012 hPa | 0 mm | - | 0 W/m² | - |
| 1777312799 | 25° C | 58% | 1012 hPa | 0 mm | - | 0 W/m² | - |
| 1777312499 | 24.44° C | 59% | 1013 hPa | 0 mm | - | 0 W/m² | - |
* Rain latest hour (hover to see other rain measurements)
** Current wind speed in m/s (hover to see current wind gust speed)